createdAt,value
2019-02-17T00:00:08.666Z,-1.8
2019-02-17T00:00:58.758Z,-1.8
2019-02-17T00:01:48.529Z,-1.8
2019-02-17T00:02:38.838Z,-1.8
2019-02-17T00:03:28.928Z,-1.8
2019-02-17T00:04:18.961Z,-1.8
2019-02-17T00:05:08.753Z,-1.9
2019-02-17T00:05:59.352Z,-1.9
2019-02-17T00:06:49.428Z,-1.9
2019-02-17T00:07:38.920Z,-1.9
2019-02-17T00:08:28.990Z,-1.9
2019-02-17T00:09:19.395Z,-1.9
2019-02-17T00:10:09.087Z,-2
2019-02-17T00:10:59.695Z,-2
2019-02-17T00:11:49.222Z,-2
2019-02-17T00:12:39.822Z,-2.1
2019-02-17T00:13:29.620Z,-2.1
2019-02-17T00:14:19.973Z,-2.1
2019-02-17T00:15:09.722Z,-2.1
2019-02-17T00:16:00.060Z,-2.1
2019-02-17T00:16:50.104Z,-2.2
2019-02-17T00:17:40.171Z,-2.2
2019-02-17T00:18:29.680Z,-2.2
2019-02-17T00:19:20.299Z,-2.2
2019-02-17T00:20:10.073Z,-2.3
2019-02-17T00:21:00.405Z,-2.3
2019-02-17T00:21:50.192Z,-2.3
2019-02-17T00:22:40.509Z,-2.3
2019-02-17T00:23:30.569Z,-2.3
2019-02-17T00:24:20.637Z,-2.3
2019-02-17T00:25:10.482Z,-2.4
2019-02-17T00:26:00.204Z,-2.4
2019-02-17T00:26:50.572Z,-2.4
2019-02-17T00:27:40.871Z,-2.4
2019-02-17T00:28:30.651Z,-2.4
2019-02-17T00:29:20.974Z,-2.4
2019-02-17T00:30:11.038Z,-2.5
2019-02-17T00:31:01.094Z,-2.5
2019-02-17T00:31:50.919Z,-2.5
2019-02-17T00:32:41.208Z,-2.5
2019-02-17T00:33:31.001Z,-2.6
2019-02-17T00:34:21.374Z,-2.6
2019-02-17T00:35:11.124Z,-2.6
2019-02-17T00:36:01.178Z,-2.6
2019-02-17T00:36:51.500Z,-2.6
2019-02-17T00:37:41.578Z,-2.6
2019-02-17T00:38:31.608Z,-2.6
2019-02-17T00:39:21.401Z,-2.7
2019-02-17T00:40:11.738Z,-2.7
2019-02-17T00:41:01.233Z,-2.7
2019-02-17T00:41:51.589Z,-2.7
2019-02-17T00:42:41.353Z,-2.8
2019-02-17T00:43:32.000Z,-2.8
2019-02-17T00:44:21.805Z,-2.8
2019-02-17T00:45:12.074Z,-2.8
2019-02-17T00:46:01.855Z,-2.8
2019-02-17T00:46:52.185Z,-2.8
2019-02-17T00:47:41.983Z,-2.8
2019-02-17T00:48:32.031Z,-2.8
2019-02-17T00:49:22.130Z,-2.8
2019-02-17T00:50:12.414Z,-2.8
2019-02-17T00:51:02.475Z,-2.8
2019-02-17T00:51:52.278Z,-2.8
2019-02-17T00:52:42.637Z,-2.8
2019-02-17T00:53:32.662Z,-2.8
2019-02-17T00:54:22.426Z,-2.9
2019-02-17T00:55:12.768Z,-2.8
2019-02-17T00:56:02.835Z,-2.9
2019-02-17T00:56:52.875Z,-2.9
2019-02-17T00:57:42.662Z,-2.9
2019-02-17T00:58:32.997Z,-2.9
2019-02-17T00:59:23.060Z,-2.9
2019-02-17T01:00:12.896Z,-2.9
2019-02-17T01:01:02.898Z,-2.9
2019-02-17T01:01:52.948Z,-2.9
2019-02-17T01:02:43.295Z,-2.9
2019-02-17T01:03:33.424Z,-2.9
2019-02-17T01:04:23.408Z,-2.9
2019-02-17T01:05:13.192Z,-2.9
2019-02-17T01:06:03.024Z,-2.9
2019-02-17T01:06:53.567Z,-2.9
2019-02-17T01:07:43.380Z,-2.9
2019-02-17T01:08:33.150Z,-2.9
2019-02-17T01:09:23.477Z,-2.9
2019-02-17T01:10:13.624Z,-2.9
2019-02-17T01:11:03.940Z,-2.9
2019-02-17T01:11:53.390Z,-2.9
2019-02-17T01:12:43.710Z,-2.9
2019-02-17T01:13:34.057Z,-2.9
2019-02-17T01:14:23.822Z,-2.9
2019-02-17T01:15:14.184Z,-2.9
2019-02-17T01:16:03.647Z,-3
2019-02-17T01:16:54.272Z,-3
2019-02-17T01:17:44.047Z,-3
2019-02-17T01:18:34.111Z,-3
2019-02-17T01:19:24.439Z,-3
2019-02-17T01:20:14.511Z,-3.1
2019-02-17T01:21:04.566Z,-3.1
2019-02-17T01:21:54.620Z,-3.1
2019-02-17T01:22:44.399Z,-3.1
2019-02-17T01:23:34.451Z,-3.1
2019-02-17T01:24:24.790Z,-3.1
2019-02-17T01:25:14.859Z,-3.1
2019-02-17T01:26:04.899Z,-3.1
2019-02-17T01:26:54.974Z,-3.1
2019-02-17T01:27:44.752Z,-3.1
2019-02-17T01:28:35.078Z,-3.1
2019-02-17T01:29:24.866Z,-3.1
2019-02-17T01:30:15.210Z,-3.1
2019-02-17T01:31:05.070Z,-3.2
2019-02-17T01:31:55.036Z,-3.2
2019-02-17T01:32:45.380Z,-3.2
2019-02-17T01:33:35.417Z,-3.2
2019-02-17T01:34:25.221Z,-3.2
2019-02-17T01:35:15.277Z,-3.3
2019-02-17T01:36:05.385Z,-3.3
2019-02-17T01:36:55.398Z,-3.3
2019-02-17T01:37:45.739Z,-3.3
2019-02-17T01:38:35.832Z,-3.3
2019-02-17T01:39:25.845Z,-3.3
2019-02-17T01:40:15.346Z,-3.3
2019-02-17T01:41:05.950Z,-3.3
2019-02-17T01:41:56.004Z,-3.3
2019-02-17T01:42:45.794Z,-3.4
2019-02-17T01:43:35.879Z,-3.4
2019-02-17T01:44:25.664Z,-3.4
2019-02-17T01:45:16.265Z,-3.4
2019-02-17T01:46:06.012Z,-3.4
2019-02-17T01:46:56.084Z,-3.4
2019-02-17T01:47:46.411Z,-3.4
2019-02-17T01:48:36.191Z,-3.5
2019-02-17T01:49:26.271Z,-3.5
2019-02-17T01:50:16.580Z,-3.5
2019-02-17T01:51:06.416Z,-3.6
2019-02-17T01:51:56.694Z,-3.6
2019-02-17T01:52:46.239Z,-3.6
2019-02-17T01:53:36.538Z,-3.6
2019-02-17T01:54:26.933Z,-3.6
2019-02-17T01:55:16.415Z,-3.6
2019-02-17T01:56:06.443Z,-3.6
2019-02-17T01:56:56.773Z,-3.6
2019-02-17T01:57:46.827Z,-3.6
2019-02-17T01:58:36.885Z,-3.7
2019-02-17T01:59:32.632Z,-3.6
2019-02-17T02:00:16.740Z,-3.7
2019-02-17T02:01:07.055Z,-3.7
2019-02-17T02:01:57.109Z,-3.7
2019-02-17T02:02:47.450Z,-3.7
2019-02-17T02:03:37.517Z,-3.7
2019-02-17T02:04:27.573Z,-3.7
2019-02-17T02:05:17.624Z,-3.7
2019-02-17T02:11:08.016Z,-3.8
2019-02-17T02:11:58.090Z,-3.8
2019-02-17T02:12:48.146Z,-3.8
2019-02-17T02:13:37.918Z,-3.8
2019-02-17T02:14:28.266Z,-3.8
2019-02-17T02:15:18.306Z,-3.8
2019-02-17T02:16:07.623Z,-3.8
2019-02-17T02:16:57.402Z,-3.8
2019-02-17T02:17:48.011Z,-3.8
2019-02-17T02:18:38.088Z,-3.8
2019-02-17T02:19:27.853Z,-3.8
2019-02-17T02:20:18.468Z,-3.9
2019-02-17T02:21:08.443Z,-3.9
2019-02-17T02:21:58.859Z,-3.9
2019-02-17T02:22:48.555Z,-3.9
2019-02-17T02:23:38.632Z,-3.9
2019-02-17T02:24:28.954Z,-3.9
2019-02-17T02:25:18.747Z,-3.9
2019-02-17T02:26:09.067Z,-3.9
2019-02-17T02:26:58.587Z,-3.9
2019-02-17T02:27:48.652Z,-3.9
2019-02-17T02:28:38.967Z,-3.9
2019-02-17T02:29:28.801Z,-3.9
2019-02-17T02:30:18.677Z,-3.9
2019-02-17T02:31:09.164Z,-3.9
2019-02-17T02:31:59.231Z,-3.9
2019-02-17T02:32:49.267Z,-3.9
2019-02-17T02:33:39.043Z,-3.9
2019-02-17T02:34:29.641Z,-3.9
2019-02-17T02:35:19.721Z,-3.9
2019-02-17T02:36:09.520Z,-3.9
2019-02-17T02:36:59.831Z,-3.9
2019-02-17T02:37:49.361Z,-3.9
2019-02-17T02:38:39.730Z,-4
2019-02-17T02:39:29.729Z,-4
2019-02-17T02:40:20.158Z,-4
2019-02-17T02:41:10.113Z,-4
2019-02-17T02:41:59.617Z,-4
2019-02-17T02:42:50.241Z,-4
2019-02-17T02:43:40.017Z,-4.1
2019-02-17T02:44:30.067Z,-4.1
2019-02-17T02:45:20.118Z,-4.1
2019-02-17T02:46:10.183Z,-4.1
2019-02-17T02:47:00.537Z,-4.1
2019-02-17T02:47:50.303Z,-4.1
2019-02-17T02:48:40.115Z,-4.1
2019-02-17T02:49:30.696Z,-4.1
2019-02-17T02:50:20.755Z,-4.1
2019-02-17T02:51:10.795Z,-4.1
2019-02-17T02:52:00.877Z,-4.1
2019-02-17T02:52:50.688Z,-4.1
2019-02-17T02:53:41.078Z,-4.1
2019-02-17T02:54:31.036Z,-4.1
2019-02-17T02:55:20.282Z,-4.1
2019-02-17T02:56:11.152Z,-4.1
2019-02-17T02:57:01.222Z,-4.1
2019-02-17T02:57:50.737Z,-4.1
2019-02-17T02:58:41.340Z,-4.1
2019-02-17T02:59:30.845Z,-4.1
2019-02-17T03:00:21.533Z,-4
2019-02-17T03:01:11.233Z,-4
2019-02-17T03:02:01.043Z,-4
2019-02-17T03:02:51.643Z,-4
2019-02-17T03:03:41.720Z,-4
2019-02-17T03:04:31.731Z,-4
2019-02-17T03:08:04.224Z,-4
2019-02-17T03:08:54.232Z,-3.9
2019-02-17T03:09:44.020Z,-3.9
2019-02-17T03:10:33.787Z,-3.9
2019-02-17T03:11:24.416Z,-3.9
2019-02-17T03:12:14.177Z,-3.9
2019-02-17T03:13:04.235Z,-3.9
2019-02-17T03:13:54.361Z,-3.9
2019-02-17T03:14:44.080Z,-3.9
2019-02-17T03:15:34.397Z,-3.9
2019-02-17T03:16:24.458Z,-3.9
2019-02-17T03:17:14.534Z,-3.9
2019-02-17T03:18:04.592Z,-3.9
2019-02-17T03:18:54.911Z,-3.9
2019-02-17T03:19:44.709Z,-3.9
2019-02-17T03:20:35.021Z,-3.9
2019-02-17T03:21:24.821Z,-3.9
2019-02-17T03:22:14.888Z,-3.9
2019-02-17T03:23:04.927Z,-3.9
2019-02-17T03:23:54.706Z,-3.9
2019-02-17T03:24:45.319Z,-3.9
2019-02-17T03:25:35.103Z,-3.9
2019-02-17T03:26:25.413Z,-3.9
2019-02-17T03:27:15.205Z,-3.9
2019-02-17T03:28:05.538Z,-3.9
2019-02-17T03:28:55.648Z,-3.9
2019-02-17T03:29:45.382Z,-4
2019-02-17T03:30:35.827Z,-4
2019-02-17T03:31:25.599Z,-4
2019-02-17T03:32:16.003Z,-4
2019-02-17T03:33:05.646Z,-4
2019-02-17T03:33:55.439Z,-4.1
2019-02-17T03:34:45.998Z,-4.1
2019-02-17T03:35:35.825Z,-4.1
2019-02-17T03:36:25.835Z,-4.1
2019-02-17T03:37:16.170Z,-4.1
2019-02-17T03:38:06.228Z,-4.1
2019-02-17T03:38:56.015Z,-4.1
2019-02-17T03:39:46.372Z,-4.1
2019-02-17T03:40:36.110Z,-4.1
2019-02-17T03:41:26.461Z,-4.2
2019-02-17T03:42:15.952Z,-4.2
2019-02-17T03:43:06.587Z,-4.2
2019-02-17T03:43:56.657Z,-4.2
2019-02-17T03:44:46.702Z,-4.2
2019-02-17T03:45:36.485Z,-4.3
2019-02-17T03:46:26.260Z,-4.3
2019-02-17T03:47:16.631Z,-4.3
2019-02-17T03:48:06.637Z,-4.3
2019-02-17T03:48:56.959Z,-4.3
2019-02-17T03:49:47.057Z,-4.3
2019-02-17T03:50:36.554Z,-4.3
2019-02-17T03:51:26.872Z,-4.3
2019-02-17T03:52:16.928Z,-4.3
2019-02-17T03:53:07.252Z,-4.3
2019-02-17T03:53:57.047Z,-4.3
2019-02-17T03:54:47.371Z,-4.3
2019-02-17T03:55:37.427Z,-4.3
2019-02-17T03:56:27.506Z,-4.3
2019-02-17T03:57:17.549Z,-4.3
2019-02-17T03:58:07.049Z,-4.3
2019-02-17T03:58:57.470Z,-4.3
2019-02-17T03:59:47.732Z,-4.3
2019-02-17T04:00:37.221Z,-4.4
2019-02-17T04:01:27.858Z,-4.4
2019-02-17T04:02:17.612Z,-4.4
2019-02-17T04:03:07.658Z,-4.4
2019-02-17T04:03:57.729Z,-4.4
2019-02-17T04:04:47.248Z,-4.4
2019-02-17T04:05:37.910Z,-4.4
2019-02-17T04:06:27.908Z,-4.4
2019-02-17T04:07:17.948Z,-4.4
2019-02-17T04:08:08.296Z,-4.4
2019-02-17T04:08:58.425Z,-4.4
2019-02-17T04:09:48.460Z,-4.5
2019-02-17T04:10:38.207Z,-4.4
2019-02-17T04:11:28.525Z,-4.5
2019-02-17T04:12:18.571Z,-4.5
2019-02-17T04:13:08.635Z,-4.5
2019-02-17T04:13:58.467Z,-4.5
2019-02-17T04:14:48.771Z,-4.5
2019-02-17T04:15:38.832Z,-4.5
2019-02-17T04:16:28.865Z,-4.6
2019-02-17T04:17:18.682Z,-4.6
2019-02-17T04:18:08.702Z,-4.6
2019-02-17T04:18:59.023Z,-4.6
2019-02-17T04:19:48.842Z,-4.6
2019-02-17T04:20:39.176Z,-4.6
2019-02-17T04:21:29.207Z,-4.6
2019-02-17T04:22:19.306Z,-4.6
2019-02-17T04:23:08.767Z,-4.6
2019-02-17T04:23:59.382Z,-4.6
2019-02-17T04:24:49.168Z,-4.6
2019-02-17T04:25:39.382Z,-4.6
2019-02-17T04:26:29.272Z,-4.6
2019-02-17T04:27:19.366Z,-4.6
2019-02-17T04:28:09.410Z,-4.6
2019-02-17T04:28:59.774Z,-4.6
2019-02-17T04:29:49.786Z,-4.6
2019-02-17T04:30:39.904Z,-4.6
2019-02-17T04:31:29.959Z,-4.6
2019-02-17T04:32:19.682Z,-4.6
2019-02-17T04:33:10.014Z,-4.6
2019-02-17T04:33:59.550Z,-4.6
2019-02-17T04:34:49.863Z,-4.6
2019-02-17T04:35:40.285Z,-4.6
2019-02-17T04:36:29.968Z,-4.6
2019-02-17T04:37:20.307Z,-4.6
2019-02-17T04:38:10.391Z,-4.7
2019-02-17T04:39:00.149Z,-4.6
2019-02-17T04:39:50.567Z,-4.7
2019-02-17T04:40:39.985Z,-4.7
2019-02-17T04:41:30.578Z,-4.7
2019-02-17T04:42:20.376Z,-4.7
2019-02-17T04:43:10.801Z,-4.7
2019-02-17T04:44:00.492Z,-4.7
2019-02-17T04:44:50.558Z,-4.7
2019-02-17T04:45:40.639Z,-4.8
2019-02-17T04:46:31.001Z,-4.8
2019-02-17T04:47:20.733Z,-4.8
2019-02-17T04:48:11.051Z,-4.8
2019-02-17T04:49:01.100Z,-4.8
2019-02-17T04:49:51.224Z,-4.8
2019-02-17T04:50:41.232Z,-4.8
2019-02-17T04:51:30.711Z,-4.8
2019-02-17T04:52:21.053Z,-4.8
2019-02-17T04:53:11.401Z,-4.8
2019-02-17T04:54:01.203Z,-4.8
2019-02-17T04:54:51.512Z,-4.8
2019-02-17T04:55:40.745Z,-4.8
2019-02-17T04:56:31.362Z,-4.8
2019-02-17T04:57:21.436Z,-4.8
2019-02-17T04:58:11.196Z,-4.8
2019-02-17T04:59:01.820Z,-4.8
2019-02-17T04:59:51.571Z,-4.8
2019-02-17T05:00:42.744Z,-4.8
2019-02-17T05:01:31.700Z,-4.8
2019-02-17T05:02:22.047Z,-4.8
2019-02-17T05:03:11.814Z,-4.8
2019-02-17T05:04:01.861Z,-4.8
2019-02-17T05:04:51.929Z,-4.8
2019-02-17T05:05:42.368Z,-4.8
2019-02-17T05:06:32.472Z,-4.8
2019-02-17T05:07:22.477Z,-4.8
2019-02-17T05:08:12.159Z,-4.8
2019-02-17T05:09:02.217Z,-4.8
2019-02-17T05:09:52.349Z,-4.8
2019-02-17T05:10:42.432Z,-4.8
2019-02-17T05:11:32.427Z,-4.8
2019-02-17T05:12:22.729Z,-4.8
2019-02-17T05:13:12.762Z,-4.8
2019-02-17T05:14:02.563Z,-4.8
2019-02-17T05:14:52.334Z,-4.8
2019-02-17T05:15:42.970Z,-4.8
2019-02-17T05:16:32.721Z,-4.8
2019-02-17T05:17:23.051Z,-4.8
2019-02-17T05:18:12.876Z,-4.8
2019-02-17T05:19:03.227Z,-4.9
2019-02-17T05:19:53.230Z,-4.9
2019-02-17T05:20:43.045Z,-4.9
2019-02-17T05:21:33.351Z,-4.9
2019-02-17T05:22:23.394Z,-4.9
2019-02-17T05:23:13.211Z,-4.9
2019-02-17T05:24:03.532Z,-4.9
2019-02-17T05:24:53.590Z,-4.9
2019-02-17T05:25:43.378Z,-4.9
2019-02-17T05:26:33.419Z,-4.9
2019-02-17T05:27:23.746Z,-4.9
2019-02-17T05:28:13.543Z,-4.9
2019-02-17T05:29:03.592Z,-4.9
2019-02-17T05:29:53.688Z,-4.9
2019-02-17T05:30:54.744Z,-4.9
2019-02-17T05:31:34.066Z,-4.9
2019-02-17T05:32:23.543Z,-4.9
2019-02-17T05:33:13.884Z,-4.9
2019-02-17T05:34:03.946Z,-4.9
2019-02-17T05:34:54.286Z,-4.9
2019-02-17T05:35:44.360Z,-4.9
2019-02-17T05:36:34.115Z,-4.9
2019-02-17T05:37:24.176Z,-4.9
2019-02-17T05:38:14.285Z,-4.9
2019-02-17T05:39:04.025Z,-4.9
2019-02-17T05:39:54.358Z,-4.8
2019-02-17T05:40:44.651Z,-4.8
2019-02-17T05:41:34.754Z,-4.8
2019-02-17T05:42:24.783Z,-4.8
2019-02-17T05:43:14.381Z,-4.8
2019-02-17T05:44:04.639Z,-4.8
2019-02-17T05:44:54.955Z,-4.8
2019-02-17T05:45:45.105Z,-4.8
2019-02-17T05:46:35.085Z,-4.8
2019-02-17T05:47:25.119Z,-4.8
2019-02-17T05:48:14.927Z,-4.8
2019-02-17T05:49:05.290Z,-4.8
2019-02-17T05:49:55.306Z,-4.8
2019-02-17T05:50:45.212Z,-4.8
2019-02-17T05:51:35.202Z,-4.8
2019-02-17T05:52:25.282Z,-4.8
2019-02-17T05:53:15.532Z,-4.8
2019-02-17T05:54:05.593Z,-4.7
2019-02-17T05:54:55.100Z,-4.7
2019-02-17T05:55:45.709Z,-4.6
2019-02-17T05:56:35.467Z,-4.6
2019-02-17T05:57:25.812Z,-4.6
2019-02-17T05:58:15.594Z,-4.6
2019-02-17T05:59:05.948Z,-4.6
2019-02-17T05:59:55.696Z,-4.6
2019-02-17T06:00:46.042Z,-4.5
2019-02-17T06:01:36.138Z,-4.4
2019-02-17T06:02:25.401Z,-4.4
2019-02-17T06:03:15.929Z,-4.4
2019-02-17T06:04:06.254Z,-4.4
2019-02-17T06:06:03.769Z,-4.3
2019-02-17T06:06:54.052Z,-4.2
2019-02-17T06:07:43.895Z,-4.2
2019-02-17T06:08:33.636Z,-4.1
2019-02-17T06:09:24.246Z,-4.1
2019-02-17T06:10:14.041Z,-4
2019-02-17T06:11:04.185Z,-3.9
2019-02-17T06:11:54.390Z,-3.9
2019-02-17T06:12:44.517Z,-3.8
2019-02-17T06:14:24.579Z,-3.7
2019-02-17T06:15:14.084Z,-3.6
2019-02-17T06:16:04.448Z,-3.6
2019-02-17T06:16:54.488Z,-3.4
2019-02-17T06:17:43.991Z,-3.4
2019-02-17T06:18:34.595Z,-3.3
2019-02-17T06:19:24.365Z,-3.3
2019-02-17T06:20:14.711Z,-3.1
2019-02-17T06:21:05.036Z,-3.1
2019-02-17T06:21:54.826Z,-2.9
2019-02-17T06:22:44.452Z,-2.9
2019-02-17T06:23:34.976Z,-2.7
2019-02-17T06:24:24.971Z,-2.6
2019-02-17T06:25:15.095Z,-2.4
2019-02-17T06:26:05.403Z,-2.3
2019-02-17T06:26:55.171Z,-2.1
2019-02-17T06:27:45.498Z,-1.9
2019-02-17T06:28:35.558Z,-1.8
2019-02-17T06:29:25.397Z,-1.5
2019-02-17T06:30:15.683Z,-1.3
2019-02-17T06:31:16.362Z,-1.1
2019-02-17T06:31:55.782Z,-0.8
2019-02-17T06:32:45.292Z,-0.6
2019-02-17T06:33:35.615Z,-0.3
2019-02-17T06:34:25.952Z,0
2019-02-17T06:35:16.017Z,0.4
2019-02-17T06:36:06.072Z,0.8
2019-02-17T06:36:56.143Z,1.3
2019-02-17T06:37:45.899Z,1.9
2019-02-17T06:38:35.701Z,2.6
2019-02-17T06:39:26.029Z,3.2
2019-02-17T06:40:15.807Z,3.8
2019-02-17T06:41:06.131Z,4.4
2019-02-17T06:41:56.485Z,5.1
2019-02-17T06:42:46.623Z,5.8
2019-02-17T06:43:36.605Z,6.3
2019-02-17T06:44:25.632Z,6.9
2019-02-17T06:45:16.156Z,7.4
2019-02-17T06:46:06.483Z,8
2019-02-17T06:46:56.290Z,8.5
2019-02-17T06:47:46.862Z,9.1
2019-02-17T06:48:36.912Z,9.6
2019-02-17T06:49:26.213Z,10.2
2019-02-17T06:50:17.085Z,10.7
2019-02-17T06:51:07.086Z,11.3
2019-02-17T06:51:57.154Z,11.8
2019-02-17T06:52:46.939Z,12.3
2019-02-17T06:53:37.251Z,12.8
2019-02-17T06:54:26.831Z,13.3
2019-02-17T06:55:16.554Z,13.8
2019-02-17T06:56:09.564Z,14.3
2019-02-17T06:56:56.671Z,14.8
2019-02-17T06:57:47.004Z,15.3
2019-02-17T06:58:37.651Z,15.8
2019-02-17T06:59:27.664Z,16.3
2019-02-17T07:00:17.443Z,16.8
2019-02-17T07:01:07.509Z,17.2
2019-02-17T07:01:57.831Z,17.8
2019-02-17T07:02:47.623Z,18.1
2019-02-17T07:03:38.238Z,18.6
2019-02-17T07:06:03.736Z,19.8
2019-02-17T07:06:53.896Z,20.4
2019-02-17T07:07:43.842Z,20.8
2019-02-17T07:08:33.374Z,21.3
2019-02-17T07:09:23.439Z,21.8
2019-02-17T07:10:14.028Z,22.3
2019-02-17T07:11:03.533Z,22.8
2019-02-17T07:11:56.711Z,23.3
2019-02-17T07:12:44.683Z,23.8
2019-02-17T07:13:34.183Z,24.3
2019-02-17T07:14:24.508Z,24.7
2019-02-17T07:15:14.303Z,25.2
2019-02-17T07:16:04.633Z,25.6
2019-02-17T07:16:54.407Z,26.1
2019-02-17T07:17:44.207Z,26.6
2019-02-17T07:18:34.806Z,27.1
2019-02-17T07:19:24.317Z,27.6
2019-02-17T07:20:14.936Z,28
2019-02-17T07:21:04.985Z,28.4
2019-02-17T07:21:54.487Z,28.9
2019-02-17T07:22:45.162Z,29.4
2019-02-17T07:23:34.894Z,29.9
2019-02-17T07:24:25.230Z,30.3
2019-02-17T07:25:15.280Z,30.8
2019-02-17T07:26:05.313Z,31.3
2019-02-17T07:26:55.435Z,31.6
2019-02-17T07:27:45.432Z,32.1
2019-02-17T07:28:35.497Z,32.6
2019-02-17T07:29:25.356Z,33.1
2019-02-17T07:30:15.337Z,33.6
2019-02-17T07:31:05.395Z,34.1
2019-02-17T07:31:55.769Z,34.6
2019-02-17T07:32:45.780Z,35
2019-02-17T07:33:35.855Z,35.5
2019-02-17T07:34:25.457Z,35.9
2019-02-17T07:35:15.973Z,36.4
2019-02-17T07:36:06.023Z,36.8
2019-02-17T07:36:55.832Z,37.3
2019-02-17T07:37:45.842Z,37.7
2019-02-17T07:38:36.184Z,38.2
2019-02-17T07:39:25.967Z,38.6
2019-02-17T07:40:16.289Z,39.1
2019-02-17T07:41:06.074Z,39.6
2019-02-17T07:41:55.867Z,40.1
2019-02-17T07:42:46.484Z,40.6
2019-02-17T07:43:36.521Z,41.1
2019-02-17T07:44:26.582Z,41.6
2019-02-17T07:45:16.367Z,42
2019-02-17T07:46:06.686Z,42.5
2019-02-17T07:46:56.474Z,42.9
2019-02-17T07:47:46.533Z,43.4
2019-02-17T07:48:36.861Z,43.9
2019-02-17T07:49:26.663Z,44.3
2019-02-17T07:50:16.978Z,44.7
2019-02-17T07:51:06.226Z,45.2
2019-02-17T07:51:56.531Z,45.6
2019-02-17T07:52:47.165Z,46
2019-02-17T07:53:36.922Z,46.5
2019-02-17T07:54:26.986Z,46.9
2019-02-17T07:55:17.053Z,47.3
2019-02-17T07:56:07.368Z,47.6
2019-02-17T07:56:57.468Z,47.9
2019-02-17T07:57:46.663Z,48.3
2019-02-17T07:58:37.262Z,48.6
2019-02-17T07:59:27.331Z,49
2019-02-17T08:00:17.404Z,49.4
2019-02-17T08:01:09.051Z,49.8
2019-02-17T08:01:57.496Z,50.2
2019-02-17T08:02:49.746Z,50.6
2019-02-17T08:03:37.633Z,51
2019-02-17T08:04:27.945Z,51.3
2019-02-17T08:05:18.002Z,51.7
2019-02-17T08:06:07.790Z,52.1
2019-02-17T08:07:47.892Z,52.8
2019-02-17T08:08:38.233Z,53.1
2019-02-17T08:09:28.287Z,53.5
2019-02-17T08:10:18.070Z,53.9
2019-02-17T08:11:08.407Z,54.3
2019-02-17T08:11:58.237Z,54.6
2019-02-17T08:12:48.520Z,55
2019-02-17T08:13:38.355Z,55.4
2019-02-17T08:14:28.402Z,55.7
2019-02-17T08:15:18.416Z,56.1
2019-02-17T08:16:08.494Z,56.4
2019-02-17T08:16:57.991Z,56.6
2019-02-17T08:17:48.861Z,56.9
2019-02-17T08:18:38.934Z,57.6
2019-02-17T08:19:28.979Z,59.1
2019-02-17T08:20:19.028Z,58.3
2019-02-17T08:21:08.813Z,56.4
2019-02-17T08:21:59.202Z,53.8
2019-02-17T08:22:48.734Z,51.2
2019-02-17T08:23:38.986Z,49.6
2019-02-17T08:24:29.052Z,48.6
2019-02-17T08:25:23.994Z,47.7
2019-02-17T08:26:09.445Z,47.1
2019-02-17T08:26:59.207Z,46.9
2019-02-17T08:27:48.996Z,46.8
2019-02-17T08:28:39.341Z,46.8
2019-02-17T08:29:29.388Z,47
2019-02-17T08:30:19.446Z,47.2
2019-02-17T08:31:09.789Z,47.4
2019-02-17T08:31:59.561Z,47.8
2019-02-17T08:32:49.899Z,48.2
2019-02-17T08:33:39.678Z,48.7
2019-02-17T08:34:29.743Z,49.3
2019-02-17T08:35:19.786Z,49.8
2019-02-17T08:36:10.136Z,50.4
2019-02-17T08:37:00.178Z,51.1
2019-02-17T08:37:49.395Z,51.7
2019-02-17T08:38:40.310Z,52.3
2019-02-17T08:39:30.075Z,52.9
2019-02-17T08:40:19.868Z,53.5
2019-02-17T08:41:10.474Z,54.1
2019-02-17T08:42:00.048Z,54.7
2019-02-17T08:42:50.580Z,55.3
2019-02-17T08:43:39.807Z,55.9
2019-02-17T08:44:30.413Z,56.5
2019-02-17T08:45:20.752Z,57
2019-02-17T08:46:10.812Z,58.4
2019-02-17T08:47:00.881Z,59.1
2019-02-17T08:47:50.663Z,57.4
2019-02-17T08:48:40.988Z,55.6
2019-02-17T08:49:30.205Z,52.9
2019-02-17T08:50:21.621Z,50.6
2019-02-17T08:51:10.139Z,49
2019-02-17T08:52:02.394Z,48.1
2019-02-17T08:52:50.527Z,47.8
2019-02-17T08:53:40.568Z,47.8
2019-02-17T08:54:30.645Z,48.3
2019-02-17T08:55:20.719Z,48.8
2019-02-17T08:56:11.023Z,49.6
2019-02-17T08:57:01.565Z,50.4
2019-02-17T08:57:51.359Z,51.3
2019-02-17T08:58:40.737Z,52.1
2019-02-17T08:59:31.253Z,52.8
2019-02-17T09:00:21.797Z,53.5
2019-02-17T09:01:10.896Z,54.3
2019-02-17T09:02:07.469Z,55
2019-02-17T09:02:50.659Z,55.8
2019-02-17T09:03:41.529Z,56.5
2019-02-17T09:04:31.328Z,57.6
2019-02-17T09:05:21.652Z,59.3
2019-02-17T09:06:11.718Z,59.3
2019-02-17T09:07:01.486Z,58.6
2019-02-17T09:07:51.542Z,57.3
2019-02-17T09:08:41.344Z,55.4
2019-02-17T09:09:31.668Z,53.5
2019-02-17T09:10:21.721Z,52.3
2019-02-17T09:11:11.769Z,51.6
2019-02-17T09:12:02.101Z,51.4
2019-02-17T09:12:52.161Z,51.6
2019-02-17T09:14:32.287Z,52.5
2019-02-17T09:15:22.370Z,53.1
2019-02-17T09:16:12.408Z,53.9
2019-02-17T09:17:02.454Z,54.6
2019-02-17T09:17:52.504Z,55.4
2019-02-17T09:18:42.563Z,56.3
2019-02-17T09:19:32.336Z,57.2
2019-02-17T09:20:22.771Z,58.4
2019-02-17T09:21:12.731Z,58.4
2019-02-17T09:22:02.608Z,58.2
2019-02-17T09:22:52.583Z,57.6
2019-02-17T09:23:42.385Z,56.1
2019-02-17T09:24:32.690Z,54.6
2019-02-17T09:25:22.764Z,53.3
2019-02-17T09:26:12.811Z,52.6
2019-02-17T09:27:02.867Z,52.5
2019-02-17T09:27:52.657Z,52.8
2019-02-17T09:28:43.252Z,53.3
2019-02-17T09:29:33.316Z,53.9
2019-02-17T09:30:23.371Z,54.7
2019-02-17T09:31:13.144Z,55.4
2019-02-17T09:32:03.215Z,56.4
2019-02-17T09:32:53.257Z,58.3
2019-02-17T09:33:43.589Z,58.8
2019-02-17T09:34:33.657Z,58.9
2019-02-17T09:35:22.709Z,58.9
2019-02-17T09:36:13.493Z,58.2
2019-02-17T09:37:03.337Z,56.9
2019-02-17T09:37:53.882Z,55.9
2019-02-17T09:38:44.424Z,54.9
2019-02-17T09:39:34.471Z,54.3
2019-02-17T09:40:23.769Z,54.1
2019-02-17T09:41:14.107Z,54.6
2019-02-17T09:42:04.162Z,55.4
2019-02-17T09:42:54.691Z,56.4
2019-02-17T09:43:46.799Z,58.1
2019-02-17T09:44:34.541Z,59.3
2019-02-17T09:45:24.169Z,59.7
2019-02-17T09:46:14.649Z,59.8
2019-02-17T09:47:04.531Z,59
2019-02-17T09:47:54.555Z,57.9
2019-02-17T09:48:45.096Z,57.1
2019-02-17T09:49:34.884Z,57
2019-02-17T09:50:24.743Z,57.5
2019-02-17T09:51:14.799Z,58.2
2019-02-17T09:52:54.650Z,58.8
2019-02-17T09:53:45.438Z,58.7
2019-02-17T09:54:35.031Z,58.4
2019-02-17T09:55:25.098Z,58.1
2019-02-17T09:56:15.141Z,57.9
2019-02-17T09:57:05.193Z,57.9
2019-02-17T09:57:55.200Z,57.9
2019-02-17T09:58:45.793Z,58
2019-02-17T09:59:35.569Z,58.1
2019-02-17T10:00:25.170Z,58.1
2019-02-17T10:01:15.967Z,58
2019-02-17T10:02:05.270Z,57.9
2019-02-17T10:04:35.428Z,57.8
2019-02-17T10:07:02.767Z,57.9
2019-02-17T10:07:53.133Z,57.9
2019-02-17T10:08:43.493Z,57.9
2019-02-17T10:09:32.937Z,57.8
2019-02-17T10:10:23.747Z,57.7
2019-02-17T10:11:13.047Z,57.6
2019-02-17T10:12:03.369Z,57.4
2019-02-17T10:12:53.712Z,57.3
2019-02-17T10:13:44.249Z,57.2
2019-02-17T10:14:33.547Z,57.1
2019-02-17T10:15:23.882Z,57.2
2019-02-17T10:16:13.952Z,57.2
2019-02-17T10:17:03.934Z,57.3
2019-02-17T10:17:53.580Z,57.3
2019-02-17T10:18:44.597Z,57.3
2019-02-17T10:19:34.167Z,57.3
2019-02-17T10:20:25.768Z,57.4
2019-02-17T10:21:14.289Z,57.4
2019-02-17T10:22:04.598Z,57.3
2019-02-17T10:22:54.446Z,57.3
2019-02-17T10:23:44.199Z,57.4
2019-02-17T10:24:33.971Z,57.5
2019-02-17T10:25:24.355Z,57.6
2019-02-17T10:27:04.409Z,57.9
2019-02-17T10:27:54.749Z,57.9
2019-02-17T10:28:44.801Z,58
2019-02-17T10:29:34.861Z,58.1
2019-02-17T10:30:25.416Z,58.2
2019-02-17T10:31:14.988Z,58.3
2019-02-17T10:32:05.031Z,58.3
2019-02-17T10:32:54.819Z,58.2
2019-02-17T10:33:44.905Z,58
2019-02-17T10:35:24.813Z,57.6
2019-02-17T10:36:15.323Z,57.5
2019-02-17T10:37:05.097Z,57.6
2019-02-17T10:37:55.433Z,57.7
2019-02-17T10:38:45.286Z,57.7
2019-02-17T10:39:35.561Z,57.7
2019-02-17T10:40:25.676Z,57.6
2019-02-17T10:41:15.400Z,57.5
2019-02-17T10:42:05.451Z,57.4
2019-02-17T10:42:55.779Z,57.4
2019-02-17T10:43:45.833Z,57.4
2019-02-17T10:44:35.910Z,57.6
2019-02-17T10:45:25.737Z,57.6
2019-02-17T10:47:06.075Z,57.9
2019-02-17T10:47:56.125Z,58
2019-02-17T10:48:46.258Z,58
2019-02-17T10:49:36.240Z,58.1
2019-02-17T10:50:26.034Z,58.2
2019-02-17T10:51:16.363Z,58.3
2019-02-17T10:52:06.144Z,58.5
2019-02-17T10:52:56.199Z,58.6
2019-02-17T10:53:46.524Z,58.8
2019-02-17T10:54:36.587Z,58.8
2019-02-17T10:55:26.652Z,58.9
2019-02-17T10:56:16.699Z,58.9
2019-02-17T10:57:06.766Z,58.9
2019-02-17T10:57:56.809Z,59
2019-02-17T10:58:46.620Z,59
2019-02-17T10:59:37.404Z,59.1
2019-02-17T11:00:26.736Z,59.1
2019-02-17T11:01:17.542Z,59.1
2019-02-17T11:02:07.099Z,59.1
2019-02-17T11:02:57.169Z,59.1
2019-02-17T11:03:47.194Z,59.3
2019-02-17T11:04:37.288Z,59.3
2019-02-17T11:05:27.540Z,59.3
2019-02-17T11:06:17.393Z,59.2
2019-02-17T11:07:06.922Z,59.1
2019-02-17T11:07:57.499Z,59.1
2019-02-17T11:08:47.289Z,59.1
2019-02-17T11:09:37.695Z,59.2
2019-02-17T11:10:27.413Z,59.3
2019-02-17T11:11:17.741Z,59.4
2019-02-17T11:12:07.998Z,59.6
2019-02-17T11:12:57.586Z,59.7
2019-02-17T11:13:48.166Z,59.8
2019-02-17T11:14:38.438Z,59.8
2019-02-17T11:15:28.488Z,59.8
2019-02-17T11:16:18.563Z,59.8
2019-02-17T11:17:08.426Z,59.8
2019-02-17T11:17:58.413Z,59.8
2019-02-17T11:18:48.990Z,59.8
2019-02-17T11:19:38.803Z,59.9
2019-02-17T11:20:28.587Z,59.9
2019-02-17T11:21:18.962Z,60
2019-02-17T11:22:08.977Z,60.1
2019-02-17T11:22:59.038Z,60.3
2019-02-17T11:23:48.970Z,60.4
2019-02-17T11:24:38.920Z,60.5
2019-02-17T11:25:29.205Z,60.6
2019-02-17T11:26:19.303Z,60.7
2019-02-17T11:27:09.315Z,60.7
2019-02-17T11:27:59.100Z,60.8
2019-02-17T11:28:49.480Z,60.9